Time;durP1;ratioP1;P1;durP2;ratioP2;P2;SDS_P1;SDS_P2;PMS_P1;PMS_P2;Temp;Humidity;BMP_temperature;BMP_pressure;BME280_temperature;BME280_humidity;BME280_pressure;Samples;Min_cycle;Max_cycle;Signal;HPM_P1;HPM_P2
2023/12/25 00:02:19;;;;;;;4.87;0.70;;;;;;;-145.69;45.86;52226.53;4914866;29;20225;-81
2023/12/25 00:04:46;;;;;;;1.48;0.60;;;;;;;-145.69;45.40;52274.06;4917974;29;20447;-81
2023/12/25 00:07:12;;;;;;;0.53;0.53;;;;;;;-145.69;45.15;52270.13;4919577;29;20208;-80
2023/12/25 00:09:39;;;;;;;1.07;0.50;;;;;;;-145.69;45.07;52268.13;4919108;29;20620;-81
2023/12/25 00:12:06;;;;;;;1.07;0.83;;;;;;;-145.69;43.99;52268.13;4917058;29;20295;-81
2023/12/25 00:14:33;;;;;;;1.27;0.60;;;;;;;-145.69;44.37;52228.53;4918682;29;20271;-81
2023/12/25 00:16:59;;;;;;;0.93;0.80;;;;;;;-145.69;44.40;52238.44;4918620;29;20224;-80
2023/12/25 00:19:27;;;;;;;1.20;0.70;;;;;;;-145.69;44.17;52262.19;4916981;29;20720;-81
2023/12/25 00:21:54;;;;;;;1.20;0.60;;;;;;;-145.69;44.30;52222.59;4917605;29;20656;-81
2023/12/25 00:24:20;;;;;;;3.40;0.80;;;;;;;-145.69;44.14;52285.97;4916618;29;20211;-80
2023/12/25 00:26:46;;;;;;;0.80;0.80;;;;;;;-145.69;43.99;52270.13;4905228;29;20553;-81
2023/12/25 00:29:13;;;;;;;1.23;0.67;;;;;;;-145.69;43.53;52264.16;4919052;29;20235;-80
2023/12/25 00:31:39;;;;;;;0.80;0.70;;;;;;;-145.69;43.37;52289.91;4918409;29;20200;-81
2023/12/25 00:34:06;;;;;;;3.10;0.90;;;;;;;-145.69;43.16;52274.06;4918444;29;20197;-80
2023/12/25 00:36:34;;;;;;;1.43;0.80;;;;;;;-145.69;43.05;52278.03;4918962;29;20240;-81
2023/12/25 00:39:00;;;;;;;2.07;0.70;;;;;;;-145.69;42.99;52278.03;4917899;29;20204;-80
2023/12/25 00:41:30;;;;;;;1.03;0.90;;;;;;;-145.69;42.67;52266.16;4915512;29;20290;-81
2023/12/25 00:43:57;;;;;;;0.50;0.50;;;;;;;-145.69;42.27;52301.81;4905117;29;20656;-82
2023/12/25 00:46:23;;;;;;;0.80;0.80;;;;;;;-145.69;43.15;52250.31;4918199;29;20211;-82
2023/12/25 00:48:49;;;;;;;0.57;0.57;;;;;;;-145.69;42.60;52285.97;4918365;29;20207;-81
2023/12/25 00:51:16;;;;;;;1.00;0.73;;;;;;;-145.69;42.88;52309.72;4918104;29;20363;-82
2023/12/25 00:53:44;;;;;;;1.40;0.60;;;;;;;-145.69;42.51;52282.00;4918352;29;20652;-80
2023/12/25 00:56:10;;;;;;;1.00;0.60;;;;;;;-145.69;42.28;52293.88;4918091;29;20228;-80
2023/12/25 00:58:37;;;;;;;0.80;0.70;;;;;;;-145.69;42.46;52285.97;4916311;29;20216;-81
2023/12/25 01:01:03;;;;;;;0.80;0.60;;;;;;;-145.69;41.77;52291.91;4916925;29;20204;-82
2023/12/25 01:03:30;;;;;;;0.70;0.60;;;;;;;-145.69;41.82;52301.81;4905645;29;20735;-81
2023/12/25 01:05:56;;;;;;;0.67;0.67;;;;;;;-145.69;42.21;52252.28;4917227;29;20209;-81
2023/12/25 01:08:23;;;;;;;0.67;0.60;;;;;;;-145.69;41.53;52276.06;4918018;29;20216;-81
2023/12/25 01:10:51;;;;;;;1.07;0.70;;;;;;;-145.69;41.54;52270.13;4917733;29;20232;-82
2023/12/25 01:13:17;;;;;;;1.57;0.70;;;;;;;-145.69;41.48;52272.09;4915582;29;20223;-82
2023/12/25 01:15:44;;;;;;;1.07;0.60;;;;;;;-145.69;40.98;52250.31;4916878;29;20231;-81
2023/12/25 01:18:10;;;;;;;1.07;0.50;;;;;;;-145.69;41.59;52230.50;4917390;29;20200;-81
2023/12/25 01:20:36;;;;;;;3.27;0.73;;;;;;;-145.69;41.31;52240.41;4917926;29;20212;-81
2023/12/25 01:23:03;;;;;;;1.47;0.63;;;;;;;-145.69;40.81;52285.97;4917612;29;20207;-81
2023/12/25 01:25:30;;;;;;;0.77;0.70;;;;;;;-145.69;40.60;52287.94;4918072;29;20215;-81
2023/12/25 01:27:57;;;;;;;3.27;0.63;;;;;;;-145.69;40.52;52238.44;4905220;29;20197;-81
2023/12/25 01:30:24;;;;;;;0.57;0.57;;;;;;;-145.69;40.26;52278.03;4905741;29;20216;-80
2023/12/25 01:32:51;;;;;;;0.50;0.50;;;;;;;-145.69;40.11;52289.91;4916636;29;20212;-82
2023/12/25 01:35:17;;;;;;;1.13;0.50;;;;;;;-145.69;39.52;52244.38;4917465;29;20226;-81
2023/12/25 01:37:44;;;;;;;1.70;0.83;;;;;;;-145.69;39.70;52268.13;4917880;29;20212;-80
2023/12/25 01:40:11;;;;;;;2.53;0.80;;;;;;;-145.69;39.75;52238.44;4917390;29;20574;-81
2023/12/25 01:42:41;;;;;;;0.70;0.70;;;;;;;-145.69;39.52;52242.38;4914731;29;20204;-81
2023/12/25 01:45:10;;;;;;;1.13;0.77;;;;;;;-145.69;38.84;52274.06;4917136;29;20208;-81
2023/12/25 01:47:37;;;;;;;1.93;0.80;;;;;;;-145.69;38.86;52278.03;4916128;29;20243;-80
2023/12/25 01:50:05;;;;;;;1.73;0.90;;;;;;;-145.69;39.14;52258.22;4917389;29;20204;-80
2023/12/25 01:52:31;;;;;;;0.70;0.70;;;;;;;-145.69;38.85;52236.44;4917462;29;20211;-81
2023/12/25 01:55:01;;;;;;;0.67;0.63;;;;;;;-145.69;39.06;52274.06;4917482;29;20211;-81
2023/12/25 01:57:31;;;;;;;1.40;0.90;;;;;;;-145.69;38.78;52246.34;4916832;29;20228;-80
2023/12/25 01:59:57;;;;;;;1.80;0.70;;;;;;;-145.69;39.23;52278.03;4917121;29;20208;-81
2023/12/25 02:02:25;;;;;;;0.70;0.70;;;;;;;-145.69;39.01;52242.38;4914529;29;20212;-79
2023/12/25 02:04:52;;;;;;;0.60;0.60;;;;;;;-145.69;39.31;52274.06;4917070;29;20208;-80
2023/12/25 02:07:19;;;;;;;0.73;0.60;;;;;;;-145.69;38.73;52258.22;4908233;29;20201;-80
2023/12/25 02:09:48;;;;;;;2.80;1.13;;;;;;;-145.69;38.94;52270.13;4901037;29;20572;-82
2023/12/25 02:12:15;;;;;;;0.53;0.50;;;;;;;-145.69;38.52;52250.31;4916644;29;20192;-81
2023/12/25 02:14:41;;;;;;;0.80;0.80;;;;;;;-145.69;38.55;52216.66;4915975;29;20200;-81
2023/12/25 02:17:10;;;;;;;1.33;0.60;;;;;;;-145.69;38.80;52266.16;4916877;29;20313;-82
2023/12/25 02:19:40;;;;;;;2.43;0.60;;;;;;;-145.69;38.59;52266.16;4908215;29;20275;-80
2023/12/25 02:22:07;;;;;;;4.43;0.70;;;;;;;-145.69;38.59;52248.34;4914064;29;20200;-80
2023/12/25 02:24:37;;;;;;;0.73;0.70;;;;;;;-145.69;38.67;52250.31;4916913;29;20273;-80
2023/12/25 02:27:06;;;;;;;1.47;0.80;;;;;;;-145.69;38.73;52274.06;4914996;29;20219;-79
2023/12/25 02:29:33;;;;;;;1.07;0.80;;;;;;;-145.69;38.87;52228.53;4898140;29;20284;-81
2023/12/25 02:32:00;;;;;;;0.60;0.60;;;;;;;-145.69;38.83;52246.34;4916281;29;20200;-80
2023/12/25 02:34:27;;;;;;;1.33;0.67;;;;;;;-145.69;38.49;52254.28;4912833;29;20601;-80
2023/12/25 02:36:53;;;;;;;1.30;0.70;;;;;;;-145.69;38.79;52272.09;4911495;29;20235;-80
2023/12/25 02:39:20;;;;;;;0.80;0.80;;;;;;;-145.69;38.86;52246.34;4916755;29;20295;-81
2023/12/25 02:41:47;;;;;;;2.63;0.80;;;;;;;-145.69;38.78;52270.13;4916178;29;20263;-80
2023/12/25 02:44:16;;;;;;;0.70;0.70;;;;;;;-145.69;38.82;52228.53;4916481;29;20251;-80
2023/12/25 02:46:42;;;;;;;1.63;0.70;;;;;;;-145.69;38.83;52301.81;4915133;29;20247;-81
2023/12/25 02:49:09;;;;;;;1.03;0.67;;;;;;;-145.69;39.09;52238.44;4916688;29;20208;-80
2023/12/25 02:51:35;;;;;;;1.10;0.60;;;;;;;-145.69;38.60;52260.22;4910474;29;20652;-80
2023/12/25 02:54:02;;;;;;;1.27;0.90;;;;;;;-145.69;38.86;52254.28;4915482;29;20533;-80
2023/12/25 02:56:28;;;;;;;1.13;0.80;;;;;;;-145.69;39.19;52268.13;4916570;29;20235;-80
2023/12/25 02:58:54;;;;;;;1.90;0.73;;;;;;;-145.69;38.77;52289.91;4916226;29;20207;-80
2023/12/25 03:01:23;;;;;;;1.27;0.73;;;;;;;-145.69;38.50;52282.00;4911697;29;20201;-81
2023/12/25 03:03:49;;;;;;;1.93;0.73;;;;;;;-145.69;38.18;52274.06;4916615;29;20204;-81
2023/12/25 03:06:16;;;;;;;0.97;0.80;;;;;;;-145.69;38.26;52260.22;4916387;29;20215;-80
2023/12/25 03:08:42;;;;;;;1.00;0.63;;;;;;;-145.69;38.31;52270.13;4914851;29;20208;-81
2023/12/25 03:11:09;;;;;;;0.60;0.60;;;;;;;-145.69;38.11;52297.84;4897227;29;20241;-80
2023/12/25 03:13:35;;;;;;;0.93;0.80;;;;;;;-145.69;38.23;52242.38;4908683;29;20287;-80
2023/12/25 03:16:05;;;;;;;0.70;0.70;;;;;;;-145.69;38.23;52224.56;4916185;29;20240;-80
2023/12/25 03:18:33;;;;;;;0.70;0.47;;;;;;;-145.69;38.37;52270.13;4916246;29;20215;-81
2023/12/25 03:20:59;;;;;;;0.60;0.60;;;;;;;-145.69;38.05;52287.94;4915717;29;20208;-80
2023/12/25 03:23:26;;;;;;;0.87;0.73;;;;;;;-145.69;37.80;52274.06;4915578;29;20207;-81
2023/12/25 03:25:52;;;;;;;0.87;0.80;;;;;;;-145.69;37.89;52246.34;4914566;29;20231;-81
2023/12/25 03:28:18;;;;;;;0.57;0.53;;;;;;;-145.69;38.06;52272.09;4916077;29;20664;-81
2023/12/25 03:30:45;;;;;;;2.00;0.60;;;;;;;-145.69;38.33;52262.19;4915841;29;20257;-80
2023/12/25 03:33:11;;;;;;;0.93;0.70;;;;;;;-145.69;38.19;52278.03;4916240;29;20549;-81
2023/12/25 03:35:39;;;;;;;0.80;0.80;;;;;;;-145.69;37.52;52248.34;4914688;29;20687;-81
2023/12/25 03:38:05;;;;;;;1.33;0.77;;;;;;;-145.69;37.52;52293.88;4915958;29;20232;-80
2023/12/25 03:40:33;;;;;;;1.43;0.80;;;;;;;-145.69;37.99;52282.00;4916359;29;20204;-80
2023/12/25 03:42:59;;;;;;;1.00;0.90;;;;;;;-145.69;37.42;52250.31;4913617;29;20200;-80
2023/12/25 03:45:26;;;;;;;0.93;0.70;;;;;;;-145.69;37.88;52287.94;4915767;29;20208;-80
2023/12/25 03:47:52;;;;;;;2.50;0.60;;;;;;;-145.69;38.01;52272.09;4897142;29;20217;-80
2023/12/25 03:50:19;;;;;;;0.77;0.77;;;;;;;-145.69;38.11;52278.03;4903525;29;20227;-80
2023/12/25 03:52:47;;;;;;;2.00;0.80;;;;;;;-145.69;38.06;52254.28;4914828;29;20656;-80
2023/12/25 03:55:13;;;;;;;0.77;0.70;;;;;;;-145.69;37.68;52266.16;4913484;29;20209;-79
2023/12/25 03:57:40;;;;;;;0.60;0.60;;;;;;;-145.69;37.55;52266.16;4917575;29;20223;-79
2023/12/25 04:00:08;;;;;;;0.60;0.60;;;;;;;-145.69;37.26;52256.25;4919308;29;20208;-81
2023/12/25 04:02:34;;;;;;;1.17;0.60;;;;;;;-145.69;36.85;52254.28;4917879;29;20212;-79
2023/12/25 04:05:01;;;;;;;0.70;0.70;;;;;;;-145.69;37.09;52282.00;4918743;29;20223;-80
2023/12/25 04:07:27;;;;;;;0.80;0.80;;;;;;;-145.69;36.57;52289.91;4919517;29;20563;-80
2023/12/25 04:09:55;;;;;;;0.90;0.70;;;;;;;-145.69;37.24;52262.19;4919116;29;20295;-80
2023/12/25 04:12:21;;;;;;;0.80;0.63;;;;;;;-145.69;36.90;52309.72;4917228;29;20271;-80
2023/12/25 04:14:48;;;;;;;0.77;0.77;;;;;;;-145.69;37.33;52270.13;4917063;29;20210;-80
2023/12/25 04:17:14;;;;;;;0.70;0.63;;;;;;;-145.69;37.15;52264.16;4916797;29;20236;-80
2023/12/25 04:19:42;;;;;;;0.60;0.60;;;;;;;-145.69;37.32;52274.06;4918722;29;20572;-80
2023/12/25 04:22:08;;;;;;;0.60;0.60;;;;;;;-145.69;37.77;52266.16;4918546;29;20287;-81
2023/12/25 04:24:35;;;;;;;0.70;0.70;;;;;;;-145.69;36.96;52260.22;4918658;29;20208;-80
2023/12/25 04:27:03;;;;;;;0.83;0.60;;;;;;;-145.69;37.14;52246.34;4918351;29;20200;-80
2023/12/25 04:29:29;;;;;;;0.80;0.80;;;;;;;-145.69;36.96;52266.16;4916773;29;20208;-80
2023/12/25 04:31:56;;;;;;;1.13;0.70;;;;;;;-145.69;37.88;52274.06;4918251;29;20224;-80
2023/12/25 04:34:22;;;;;;;1.00;0.60;;;;;;;-145.69;38.12;52274.06;4918993;29;20221;-80
2023/12/25 04:36:48;;;;;;;1.00;0.90;;;;;;;-145.69;38.36;52254.28;4918221;29;20228;-80
2023/12/25 04:39:15;;;;;;;0.70;0.70;;;;;;;-145.69;38.11;52287.94;4918779;29;20679;-80
2023/12/25 04:41:41;;;;;;;0.97;0.70;;;;;;;-145.69;37.96;52297.84;4918744;29;20236;-80
2023/12/25 04:44:10;;;;;;;0.83;0.80;;;;;;;-145.69;38.80;52260.22;4917125;29;20555;-80
2023/12/25 04:46:39;;;;;;;3.33;0.80;;;;;;;-145.69;38.65;52303.78;4918431;29;20235;-81
2023/12/25 04:49:06;;;;;;;0.70;0.70;;;;;;;-145.69;37.83;52244.38;4918674;29;20200;-80
2023/12/25 04:51:32;;;;;;;0.60;0.60;;;;;;;-145.69;38.62;52293.88;4918209;29;20549;-81
2023/12/25 04:53:59;;;;;;;1.30;0.70;;;;;;;-145.69;38.36;52297.84;4918649;29;20204;-80
2023/12/25 04:56:25;;;;;;;0.63;0.63;;;;;;;-145.69;38.49;52278.03;4918375;29;20219;-79
2023/12/25 04:58:52;;;;;;;1.10;0.70;;;;;;;-145.69;38.94;52262.19;4908206;29;20212;-80
2023/12/25 05:01:19;;;;;;;0.77;0.70;;;;;;;-145.69;38.73;52256.25;4910645;29;20205;-81
2023/12/25 05:03:46;;;;;;;0.93;0.83;;;;;;;-145.69;38.59;52268.13;4918327;29;20208;-80
2023/12/25 05:06:12;;;;;;;0.60;0.60;;;;;;;-145.69;38.30;52226.53;4916354;29;20219;-80
2023/12/25 05:08:39;;;;;;;0.93;0.80;;;;;;;-145.69;37.81;52270.13;4900040;29;20205;-80
2023/12/25 05:11:05;;;;;;;0.97;0.70;;;;;;;-145.69;37.86;52246.34;4898817;29;20711;-80
2023/12/25 05:13:31;;;;;;;0.90;0.80;;;;;;;-145.69;38.44;52274.06;4908766;29;20197;-80
2023/12/25 05:15:58;;;;;;;1.33;0.80;;;;;;;-145.69;38.01;52248.34;4917543;29;20200;-80
2023/12/25 05:18:26;;;;;;;0.60;0.60;;;;;;;-145.69;37.79;52274.06;4916451;29;20707;-80
2023/12/25 05:20:53;;;;;;;0.60;0.60;;;;;;;-145.69;37.92;52268.13;4917543;29;20204;-80
2023/12/25 05:23:19;;;;;;;0.63;0.60;;;;;;;-145.69;38.21;52268.13;4918137;29;20204;-80
2023/12/25 05:25:45;;;;;;;0.70;0.70;;;;;;;-145.69;37.82;52236.44;4917997;29;20211;-80
2023/12/25 05:28:12;;;;;;;0.80;0.80;;;;;;;-145.69;37.32;52262.19;4917841;29;20215;-81
2023/12/25 05:30:38;;;;;;;1.43;0.80;;;;;;;-145.69;37.39;52266.16;4917399;29;20203;-80
2023/12/25 05:33:05;;;;;;;1.63;0.70;;;;;;;-145.69;37.65;52262.19;4917554;29;20207;-80
2023/12/25 05:35:34;;;;;;;5.93;0.70;;;;;;;-145.69;37.80;52252.28;4915821;29;20203;-80
2023/12/25 05:38:01;;;;;;;0.70;0.70;;;;;;;-145.69;37.71;52270.13;4917692;29;20231;-81
2023/12/25 05:40:27;;;;;;;1.70;0.80;;;;;;;-145.69;37.64;52268.13;4916924;29;20212;-81
2023/12/25 05:42:54;;;;;;;2.13;0.90;;;;;;;-145.69;38.47;52246.34;4917263;29;20211;-81
2023/12/25 05:45:21;;;;;;;1.53;0.90;;;;;;;-145.69;38.51;52246.34;4917321;29;20204;-80
2023/12/25 05:47:48;;;;;;;0.70;0.70;;;;;;;-145.69;38.52;52289.91;4917633;29;20739;-79
2023/12/25 05:50:15;;;;;;;0.70;0.70;;;;;;;-145.69;38.69;52252.28;4917219;29;20200;-79
2023/12/25 05:52:42;;;;;;;0.80;0.80;;;;;;;-145.69;38.59;52268.13;4916313;29;20216;-80
2023/12/25 05:55:09;;;;;;;1.03;0.77;;;;;;;-145.69;38.92;52289.91;4917440;29;20246;-79
2023/12/25 05:57:35;;;;;;;1.73;1.03;;;;;;;-145.69;38.78;52305.75;4917109;29;20231;-79
2023/12/25 06:00:02;;;;;;;0.90;0.80;;;;;;;-145.69;38.98;52280.00;4917020;29;20236;-80
2023/12/25 06:02:29;;;;;;;0.93;0.80;;;;;;;-145.69;38.74;52252.28;4916826;29;20691;-79
2023/12/25 06:04:55;;;;;;;0.70;0.70;;;;;;;-145.69;38.75;52276.06;4917166;29;20201;-81
2023/12/25 06:07:23;;;;;;;1.70;0.90;;;;;;;-145.69;38.83;52266.16;4915360;29;20215;-80
2023/12/25 06:09:51;;;;;;;1.00;0.90;;;;;;;-145.69;38.29;52285.97;4917086;29;20373;-82
2023/12/25 06:12:18;;;;;;;0.97;0.70;;;;;;;-145.69;38.69;52260.22;4917084;29;20204;-80
2023/12/25 06:14:44;;;;;;;0.80;0.80;;;;;;;-145.69;38.58;52282.00;4916465;29;20695;-80
2023/12/25 06:17:10;;;;;;;0.67;0.67;;;;;;;-145.69;38.59;52262.19;4914826;29;20243;-81
2023/12/25 06:19:37;;;;;;;1.40;0.97;;;;;;;-145.69;38.30;52303.78;4916103;29;20224;-80
2023/12/25 06:22:04;;;;;;;1.60;0.83;;;;;;;-145.69;38.35;52270.13;4916484;29;20663;-81
2023/12/25 06:24:30;;;;;;;0.97;0.70;;;;;;;-145.69;38.21;52272.09;4916696;29;20575;-81
2023/12/25 06:26:58;;;;;;;0.83;0.70;;;;;;;-145.69;37.64;52244.38;4916922;29;20274;-81
2023/12/25 06:29:24;;;;;;;2.07;0.90;;;;;;;-145.69;37.83;52274.06;4916699;29;20596;-81
2023/12/25 06:31:51;;;;;;;0.70;0.70;;;;;;;-145.69;37.89;52250.31;4916442;29;20287;-80
2023/12/25 06:34:17;;;;;;;0.70;0.70;;;;;;;-145.69;37.83;52285.97;4914541;29;20564;-81
2023/12/25 06:36:44;;;;;;;0.80;0.80;;;;;;;-145.69;37.56;52262.19;4897768;29;20201;-81
2023/12/25 06:39:10;;;;;;;0.80;0.80;;;;;;;-145.69;37.19;52248.34;4909518;29;20192;-81
2023/12/25 06:41:36;;;;;;;1.00;0.90;;;;;;;-145.69;36.88;52266.16;4916792;29;20215;-80
2023/12/25 06:44:04;;;;;;;2.37;0.73;;;;;;;-145.69;36.89;52260.22;4915706;29;20207;-81
2023/12/25 06:46:31;;;;;;;0.80;0.80;;;;;;;-145.69;36.35;52287.94;4916317;29;20215;-80
2023/12/25 06:48:57;;;;;;;1.17;0.87;;;;;;;-145.69;36.47;52262.19;4916688;29;20208;-81
2023/12/25 06:51:24;;;;;;;0.70;0.70;;;;;;;-145.69;36.49;52256.25;4914443;29;20255;-81
2023/12/25 06:53:50;;;;;;;0.90;0.77;;;;;;;-145.69;35.95;52246.34;4916823;29;20208;-80
2023/12/25 06:56:17;;;;;;;0.80;0.80;;;;;;;-145.69;36.33;52272.09;4916455;29;20656;-79
2023/12/25 06:58:43;;;;;;;0.77;0.70;;;;;;;-145.69;36.00;52238.44;4916395;29;20278;-81
2023/12/25 07:01:11;;;;;;;1.70;0.93;;;;;;;-145.69;35.95;52293.88;4914387;29;20551;-81
2023/12/25 07:03:37;;;;;;;0.63;0.63;;;;;;;-145.69;35.60;52278.03;4911343;29;20616;-81
2023/12/25 07:06:07;;;;;;;1.07;0.97;;;;;;;-145.69;35.26;52238.44;4916283;29;20271;-81
2023/12/25 07:08:34;;;;;;;1.00;0.90;;;;;;;-145.69;35.15;52254.28;4916188;29;20208;-81
2023/12/25 07:11:00;;;;;;;1.50;0.83;;;;;;;-145.69;35.37;52236.44;4914141;29;20235;-80
2023/12/25 07:13:27;;;;;;;1.17;1.00;;;;;;;-145.69;35.23;52238.44;4916738;29;20200;-80
2023/12/25 07:15:53;;;;;;;1.50;0.73;;;;;;;-145.69;34.95;52272.09;4915971;29;20200;-81
2023/12/25 07:18:22;;;;;;;1.23;0.83;;;;;;;-145.69;35.11;52240.41;4916336;29;20236;-82
2023/12/25 07:20:48;;;;;;;0.97;0.80;;;;;;;-145.69;35.29;52236.44;4916201;29;20215;-80
2023/12/25 07:23:14;;;;;;;0.80;0.80;;;;;;;-145.69;34.70;52246.34;4916014;29;20208;-80
2023/12/25 07:25:41;;;;;;;0.73;0.73;;;;;;;-145.69;35.36;52287.94;4916032;29;20699;-80
2023/12/25 07:28:08;;;;;;;1.07;0.77;;;;;;;-145.69;35.52;52252.28;4916546;29;20211;-80
2023/12/25 07:30:34;;;;;;;1.93;0.80;;;;;;;-145.69;35.54;52293.88;4914170;29;20208;-81
2023/12/25 07:33:01;;;;;;;2.13;0.90;;;;;;;-145.69;35.54;52274.06;4919204;29;20978;-81
2023/12/25 07:35:29;;;;;;;0.70;0.70;;;;;;;-145.69;35.50;52254.28;4919507;29;20205;-81
2023/12/25 07:37:55;;;;;;;0.73;0.73;;;;;;;-145.69;35.49;52214.66;4919982;29;20745;-81
2023/12/25 07:40:22;;;;;;;1.50;0.80;;;;;;;-145.69;35.35;52276.06;4919968;29;20214;-83
2023/12/25 07:42:48;;;;;;;0.60;0.60;;;;;;;-145.69;34.44;52252.28;4920039;29;20207;-81
2023/12/25 07:45:15;;;;;;;0.93;0.83;;;;;;;-145.69;34.35;52246.34;4917467;29;20235;-81
2023/12/25 07:47:41;;;;;;;0.90;0.90;;;;;;;-145.69;34.54;52246.34;4915791;29;20204;-81
2023/12/25 07:50:08;;;;;;;1.00;0.90;;;;;;;-145.69;34.36;52248.34;4918639;29;20204;-81
2023/12/25 07:52:36;;;;;;;1.97;0.90;;;;;;;-145.69;34.65;52258.22;4919248;29;20207;-80
2023/12/25 07:55:03;;;;;;;1.10;0.83;;;;;;;-145.69;34.23;52262.19;4918759;29;20240;-80
2023/12/25 07:57:29;;;;;;;0.83;0.70;;;;;;;-145.69;34.90;52252.28;4919564;29;20295;-81
2023/12/25 07:59:56;;;;;;;1.00;0.73;;;;;;;-145.69;34.19;52240.41;4918506;29;20200;-81
2023/12/25 08:02:24;;;;;;;1.47;0.83;;;;;;;-145.69;33.90;52254.28;4917664;29;20215;-82
2023/12/25 08:04:50;;;;;;;0.60;0.60;;;;;;;-145.69;33.56;52254.28;4911346;29;20204;-81
2023/12/25 08:07:17;;;;;;;1.37;0.90;;;;;;;-145.69;34.44;52260.22;4919401;29;20233;-81
2023/12/25 08:09:45;;;;;;;1.27;1.00;;;;;;;-145.69;34.24;52234.47;4918972;29;20242;-81
2023/12/25 08:12:11;;;;;;;0.70;0.70;;;;;;;-145.69;33.69;52254.28;4918869;29;20215;-80
2023/12/25 08:14:40;;;;;;;1.40;1.00;;;;;;;-145.69;34.52;52222.59;4918890;29;20204;-80
2023/12/25 08:17:07;;;;;;;1.47;1.10;;;;;;;-145.69;34.12;52234.47;4918058;29;20227;-81
2023/12/25 08:19:33;;;;;;;0.80;0.67;;;;;;;-145.69;34.40;52270.13;4917234;29;20323;-80
2023/12/25 08:22:00;;;;;;;2.17;1.27;;;;;;;-145.69;33.92;52232.50;4918524;29;20203;-81
2023/12/25 08:24:26;;;;;;;1.37;0.93;;;;;;;-145.69;34.33;52226.53;4918938;29;20215;-81
2023/12/25 08:26:54;;;;;;;0.90;0.80;;;;;;;-145.69;34.32;52262.19;4913210;29;20220;-81
2023/12/25 08:29:20;;;;;;;1.43;0.90;;;;;;;-145.69;34.85;52234.47;4915768;29;20211;-81
2023/12/25 08:31:47;;;;;;;2.67;1.60;;;;;;;-145.69;34.83;52240.41;4912470;29;20557;-80
2023/12/25 08:34:13;;;;;;;3.83;1.80;;;;;;;-145.69;34.11;52226.53;4909872;29;20656;-81
2023/12/25 08:36:40;;;;;;;1.47;1.20;;;;;;;-145.69;33.85;52254.28;4917628;29;20208;-82
2023/12/25 08:39:06;;;;;;;1.00;0.93;;;;;;;-145.69;33.73;52234.47;4916935;29;20231;-81
2023/12/25 08:41:32;;;;;;;3.27;0.97;;;;;;;-145.69;33.46;52222.59;4918691;29;20207;-80
2023/12/25 08:44:01;;;;;;;1.00;0.80;;;;;;;-145.69;34.05;52234.47;4915565;29;20208;-81
2023/12/25 08:46:27;;;;;;;1.23;1.13;;;;;;;-145.69;33.29;52244.38;4916769;29;20211;-80
2023/12/25 08:48:54;;;;;;;1.10;1.00;;;;;;;-145.69;34.03;52196.84;4918103;29;20664;-80
2023/12/25 08:51:20;;;;;;;1.90;1.23;;;;;;;-145.69;34.01;52246.34;4915642;29;20206;-81
2023/12/25 08:53:47;;;;;;;2.73;1.90;;;;;;;-145.69;34.33;52206.75;4912442;29;20211;-80
2023/12/25 08:56:22;;;;;;;8.30;1.90;;;;;;;-145.69;34.10;52220.59;4907904;29;20196;-80
2023/12/25 08:58:49;;;;;;;5.53;3.13;;;;;;;-145.69;35.01;52220.59;4916206;29;20481;-81
2023/12/25 09:01:17;;;;;;;9.13;3.20;;;;;;;-145.69;34.83;52226.53;4917762;29;20196;-79
2023/12/25 09:03:43;;;;;;;7.30;2.90;;;;;;;-145.69;34.16;52222.59;4916917;29;20196;-80
2023/12/25 09:06:09;;;;;;;4.83;2.50;;;;;;;-145.69;34.70;52208.72;4914225;29;20204;-80
2023/12/25 09:08:36;;;;;;;4.10;1.83;;;;;;;-145.69;34.35;52224.56;4916466;29;20207;-80
2023/12/25 09:11:02;;;;;;;5.90;3.23;;;;;;;-145.69;35.26;52192.88;4914191;29;20292;-81
2023/12/25 09:13:29;;;;;;;1.63;1.07;;;;;;;-145.69;34.34;52226.53;4917989;29;20219;-80
2023/12/25 09:15:55;;;;;;;1.60;1.20;;;;;;;-145.69;34.94;52214.66;4917397;29;20204;-80
2023/12/25 09:18:23;;;;;;;1.30;1.20;;;;;;;-145.69;34.76;52175.06;4917988;29;20228;-80
2023/12/25 09:20:49;;;;;;;2.53;1.00;;;;;;;-145.69;34.72;52226.53;4917983;29;20208;-80
2023/12/25 09:23:16;;;;;;;2.23;1.10;;;;;;;-145.69;35.59;52242.38;4916032;29;20208;-80
2023/12/25 09:25:43;;;;;;;1.63;1.00;;;;;;;-145.69;35.16;52204.75;4911669;29;20283;-81
2023/12/25 09:28:09;;;;;;;2.07;0.93;;;;;;;-145.69;35.66;52222.59;4916778;29;20205;-80
2023/12/25 09:30:36;;;;;;;3.03;1.08;;;;;;;-145.69;35.44;52198.81;4915447;29;20222;-80
2023/12/25 09:33:03;;;;;;;1.00;0.90;;;;;;;-145.69;35.70;52226.53;4916777;29;20264;-81
2023/12/25 09:35:31;;;;;;;2.10;1.27;;;;;;;-145.69;35.93;52190.91;4917003;29;20235;-81
2023/12/25 09:37:57;;;;;;;1.00;0.90;;;;;;;-145.69;35.57;52214.66;4917492;29;20201;-80
2023/12/25 09:40:24;;;;;;;1.90;1.10;;;;;;;-145.69;35.68;52184.97;4915296;29;20212;-79
2023/12/25 09:42:50;;;;;;;1.30;0.90;;;;;;;-145.69;35.61;52218.63;4917683;29;20568;-81
2023/12/25 09:45:18;;;;;;;2.65;1.02;;;;;;;-145.69;35.36;52200.81;4916770;29;20246;-81
2023/12/25 09:47:45;;;;;;;0.80;0.77;;;;;;;-145.69;35.65;52190.91;4917621;29;20711;-80
2023/12/25 09:50:12;;;;;;;1.02;0.80;;;;;;;-145.69;36.50;52228.53;4915568;29;20450;-79
2023/12/25 09:52:40;;;;;;;1.25;0.90;;;;;;;-145.69;36.19;52210.72;4915061;29;20208;-80
2023/12/25 09:55:08;;;;;;;2.83;0.83;;;;;;;-145.69;36.50;52210.72;4912255;29;20200;-79
2023/12/25 09:57:37;;;;;;;1.67;1.00;;;;;;;-145.69;36.60;52200.81;4917447;29;20567;-80
2023/12/25 10:00:04;;;;;;;2.58;1.10;;;;;;;-145.69;36.92;52202.78;4917101;29;20231;-81
2023/12/25 10:02:37;;;;;;;1.45;1.10;;;;;;;-145.69;36.19;52222.59;4916822;29;20283;-81
2023/12/25 10:05:05;;;;;;;2.17;0.90;;;;;;;-145.69;36.35;52190.91;4915571;29;20556;-81
2023/12/25 10:07:31;;;;;;;1.35;0.85;;;;;;;-145.69;36.77;52190.91;4901428;29;20235;-81
2023/12/25 10:09:59;;;;;;;2.47;0.88;;;;;;;-145.69;36.68;52226.53;4917591;29;20700;-80
2023/12/25 10:12:26;;;;;;;3.53;0.98;;;;;;;-145.69;36.82;52218.63;4916693;29;20204;-81
2023/12/25 10:14:52;;;;;;;0.90;0.90;;;;;;;-145.69;36.93;52204.75;4902403;29;20207;-82
2023/12/25 10:17:19;;;;;;;0.70;0.70;;;;;;;-145.69;37.51;52167.13;4916608;29;20687;-81
2023/12/25 10:19:50;;;;;;;2.75;1.23;;;;;;;-145.69;37.27;52228.53;4916486;29;20239;-80
2023/12/25 10:22:28;;;;;;;1.42;1.00;;;;;;;-145.69;36.87;52179.03;4915022;29;20580;-80
2023/12/25 10:25:07;;;;;;;2.08;1.15;;;;;;;-145.69;37.36;52179.03;4905796;29;20236;-80
2023/12/25 10:27:37;;;;;;;2.17;1.40;;;;;;;-145.69;38.05;52204.75;4897947;29;20208;-80
2023/12/25 10:30:04;;;;;;;2.25;1.17;;;;;;;-145.69;37.85;52214.66;4900192;29;20240;-80
2023/12/25 10:32:31;;;;;;;0.98;0.80;;;;;;;-145.69;37.81;52177.03;4913317;29;20200;-80
2023/12/25 10:35:10;;;;;;;2.13;1.10;;;;;;;-145.69;37.29;52190.91;4916169;29;20200;-80
2023/12/25 10:37:38;;;;;;;1.58;0.90;;;;;;;-145.69;38.10;52202.78;4916109;29;20203;-81
2023/12/25 10:40:18;;;;;;;4.80;1.50;;;;;;;-145.69;37.83;52188.91;4915701;29;20235;-80
2023/12/25 10:42:47;;;;;;;5.35;2.50;;;;;;;-145.69;38.16;52200.81;4916245;29;20208;-81
2023/12/25 10:45:15;;;;;;;7.07;2.58;;;;;;;-145.69;38.27;52202.78;4916111;29;20760;-81
2023/12/25 10:47:42;;;;;;;5.20;2.20;;;;;;;-145.69;38.17;52226.53;4916267;29;20286;-81
2023/12/25 10:50:10;;;;;;;2.97;1.40;;;;;;;-145.69;39.40;52240.41;4903130;29;20213;-81
2023/12/25 10:52:39;;;;;;;0.90;0.70;;;;;;;-145.69;39.27;52190.91;4913994;29;20200;-80
2023/12/25 10:55:09;;;;;;;1.70;1.00;;;;;;;-145.69;38.99;52202.78;4915525;29;20211;-80
2023/12/25 10:57:39;;;;;;;1.85;1.10;;;;;;;-145.69;39.63;52200.81;4916221;29;20211;-80
2023/12/25 11:00:10;;;;;;;2.15;1.30;;;;;;;-145.69;39.52;52234.47;4914408;29;20743;-80
2023/12/25 11:02:39;;;;;;;0.88;0.70;;;;;;;-145.69;39.88;52218.63;4914948;29;20564;-80
2023/12/25 11:05:06;;;;;;;0.95;0.70;;;;;;;-145.69;41.22;52196.84;4913910;29;20211;-80
2023/12/25 11:07:32;;;;;;;2.45;1.10;;;;;;;-145.69;42.64;52208.72;4908911;29;20214;-80
2023/12/25 11:10:01;;;;;;;1.92;1.30;;;;;;;-145.69;41.69;52226.53;4907211;29;20232;-80
2023/12/25 11:12:28;;;;;;;2.95;1.27;;;;;;;-145.69;42.00;52218.63;4918317;29;20337;-81
2023/12/25 11:14:56;;;;;;;2.72;1.85;;;;;;;-145.69;41.31;52216.66;4919958;29;20529;-80
2023/12/25 11:17:23;;;;;;;3.30;1.67;;;;;;;-145.69;41.79;52224.56;4919785;29;20214;-81